Time;durP1;ratioP1;P1;durP2;ratioP2;P2;SDS_P1;SDS_P2;PMS_P1;PMS_P2;Temp;Humidity;BMP_temperature;BMP_pressure;BME280_temperature;BME280_humidity;BME280_pressure;Samples;Min_cycle;Max_cycle;Signal;HPM_P1;HPM_P2
2022/07/31 00:00:15;;;;;;;12.07;6.13;;;;;;;27.68;44.58;100201.50;5011390;28;20116;-76
2022/07/31 00:02:43;;;;;;;11.93;5.72;;;;;;;27.62;44.90;100213.38;5011379;28;20045;-75
2022/07/31 00:05:10;;;;;;;10.50;5.15;;;;;;;27.50;44.80;100199.41;5004164;28;20140;-75
2022/07/31 00:07:38;;;;;;;15.10;6.03;;;;;;;27.64;44.93;100216.66;5015786;28;20100;-74
2022/07/31 00:10:05;;;;;;;13.57;5.97;;;;;;;27.55;45.12;100209.66;4999765;28;20133;-74
2022/07/31 00:12:33;;;;;;;10.60;5.18;;;;;;;27.58;45.12;100218.25;4995543;28;20482;-74
2022/07/31 00:15:02;;;;;;;11.35;4.68;;;;;;;27.55;45.25;100207.59;4998878;28;20054;-73
2022/07/31 00:17:31;;;;;;;15.40;5.75;;;;;;;27.55;45.14;100213.31;5000596;28;20622;-75
2022/07/31 00:19:58;;;;;;;19.38;6.03;;;;;;;27.49;45.51;100214.13;5003316;28;20112;-78
2022/07/31 00:22:25;;;;;;;12.82;5.00;;;;;;;27.40;45.40;100209.59;5000742;28;20045;-77
2022/07/31 00:24:52;;;;;;;12.27;4.80;;;;;;;27.28;45.72;100198.50;5001070;28;20050;-78
2022/07/31 00:27:19;;;;;;;15.98;5.50;;;;;;;27.28;45.58;100214.84;5002552;28;20054;-77
2022/07/31 00:29:46;;;;;;;10.68;5.25;;;;;;;27.21;45.84;100197.63;4997315;28;20141;-78
2022/07/31 00:32:13;;;;;;;9.68;5.40;;;;;;;27.12;46.07;100190.22;4997162;28;20085;-78
2022/07/31 00:34:43;;;;;;;11.02;5.80;;;;;;;27.27;45.95;100216.91;5000179;28;20050;-78
2022/07/31 00:37:11;;;;;;;12.10;5.38;;;;;;;27.11;46.27;100197.16;4997234;28;20062;-78
2022/07/31 00:39:38;;;;;;;16.65;5.35;;;;;;;27.11;46.37;100204.91;5025504;28;20080;-78
2022/07/31 00:42:05;;;;;;;9.48;6.30;;;;;;;27.10;46.09;100191.81;5003435;28;20578;-78
2022/07/31 00:44:32;;;;;;;9.27;5.45;;;;;;;27.24;46.22;100216.91;5002657;28;20096;-79
2022/07/31 00:46:58;;;;;;;11.05;4.80;;;;;;;27.26;46.17;100223.06;5002669;28;20049;-77
2022/07/31 00:49:27;;;;;;;9.93;5.32;;;;;;;27.13;46.59;100202.53;4996376;28;20054;-77
2022/07/31 00:52:04;;;;;;;11.88;5.05;;;;;;;27.19;46.82;100211.56;5004828;28;20518;-77
2022/07/31 00:54:33;;;;;;;;;;;;;;;27.04;46.27;100217.16;5004902;28;20132;-76
2022/07/31 00:57:00;;;;;;;9.60;5.88;;;;;;;27.06;46.65;100214.72;5003745;28;19935;-77
2022/07/31 00:59:28;;;;;;;12.50;5.70;;;;;;;26.83;46.99;100176.94;5004925;28;20062;-77
2022/07/31 01:01:57;;;;;;;12.38;5.90;;;;;;;27.00;46.96;100204.88;5003558;28;20165;-78
2022/07/31 01:04:25;;;;;;;10.85;4.90;;;;;;;27.00;46.97;100204.88;5003312;28;20143;-76
2022/07/31 01:06:53;;;;;;;13.38;4.65;;;;;;;26.98;47.09;100221.66;5005226;28;20528;-78
2022/07/31 01:09:21;;;;;;;11.77;5.93;;;;;;;26.98;47.13;100210.19;5002244;28;20399;-79
2022/07/31 01:11:54;;;;;;;13.15;5.85;;;;;;;26.94;47.35;100200.75;5007388;28;20058;-78
2022/07/31 01:14:28;;;;;;;11.40;5.85;;;;;;;26.94;47.40;100213.03;5016073;28;20145;-77
2022/07/31 01:16:58;;;;;;;10.18;4.93;;;;;;;26.73;47.40;100178.50;5001002;28;20136;-77
2022/07/31 01:19:31;;;;;;;13.80;5.70;;;;;;;26.58;47.50;100160.44;5001874;28;20503;-77
2022/07/31 01:22:46;;;;;;;14.52;6.85;;;;;;;26.77;47.59;100195.72;5003489;28;20417;-77
2022/07/31 01:25:39;;;;;;;14.65;5.95;;;;;;;26.70;47.63;100200.22;5005531;28;20122;-78
2022/07/31 01:28:24;;;;;;;13.52;6.90;;;;;;;26.45;47.81;100167.66;5004612;28;20085;-77
2022/07/31 01:30:59;;;;;;;13.27;5.82;;;;;;;26.60;48.26;100198.09;5003546;28;20054;-79
2022/07/31 01:33:51;;;;;;;9.20;4.95;;;;;;;26.50;48.25;100195.97;5008975;28;20046;-79
2022/07/31 01:36:24;;;;;;;13.13;4.72;;;;;;;26.37;47.94;100183.16;5012417;28;20132;-78
2022/07/31 01:38:54;;;;;;;7.88;4.60;;;;;;;26.45;48.47;100185.66;5014034;28;20055;-79
2022/07/31 01:41:27;;;;;;;14.20;5.05;;;;;;;26.42;48.15;100186.44;5022994;28;20168;-79
2022/07/31 01:43:57;;;;;;;15.80;5.32;;;;;;;26.44;48.39;100192.63;5007282;28;20104;-79
2022/07/31 01:46:26;;;;;;;14.25;5.38;;;;;;;26.46;48.45;100195.06;5007652;28;20078;-78
2022/07/31 01:48:56;;;;;;;13.70;5.53;;;;;;;26.54;48.16;100205.41;5009704;28;20057;-78
2022/07/31 01:51:26;;;;;;;13.38;6.22;;;;;;;26.52;48.45;100196.38;5002729;28;20145;-78
2022/07/31 01:53:54;;;;;;;14.70;4.88;;;;;;;26.39;48.27;100180.72;5003013;28;20607;-78
2022/07/31 01:56:22;;;;;;;10.70;5.10;;;;;;;26.49;48.26;100200.03;5006488;28;20582;-79
2022/07/31 01:58:51;;;;;;;13.52;5.53;;;;;;;26.43;48.49;100187.31;5002584;28;20045;-79
2022/07/31 02:01:19;;;;;;;13.40;5.53;;;;;;;26.45;48.79;100193.44;5001527;28;20597;-79
2022/07/31 02:03:54;;;;;;;15.02;5.30;;;;;;;26.41;48.93;100198.31;5002619;28;20054;-79
2022/07/31 02:06:22;;;;;;;;;;;;;;;26.25;48.67;100192.88;5011609;28;20160;-79
2022/07/31 02:08:51;;;;;;;16.75;4.80;;;;;;;26.13;48.92;100173.97;4999508;28;20016;-79
2022/07/31 02:11:19;;;;;;;;;;;;;;;26.18;48.55;100193.63;5007414;28;20144;-79
2022/07/31 02:13:47;;;;;;;9.63;5.25;;;;;;;26.09;48.80;100178.84;5004464;28;20362;-79
2022/07/31 02:16:16;;;;;;;15.05;5.63;;;;;;;25.97;48.84;100167.69;5003732;28;20124;-80
2022/07/31 02:18:43;;;;;;;10.52;5.80;;;;;;;26.09;49.17;100206.66;5000183;28;20149;-77
2022/07/31 02:21:10;;;;;;;14.68;5.60;;;;;;;25.95;49.35;100185.25;5004198;28;20089;-79
2022/07/31 02:23:37;;;;;;;8.05;4.22;;;;;;;26.02;49.49;100195.09;5007597;28;20729;-78
2022/07/31 02:26:05;;;;;;;14.20;5.05;;;;;;;25.92;49.33;100168.06;5004764;28;20060;-78
2022/07/31 02:28:36;;;;;;;13.98;6.38;;;;;;;26.10;49.32;100191.94;5009458;28;20089;-78
2022/07/31 02:31:06;;;;;;;11.55;4.55;;;;;;;25.89;49.62;100158.22;5003665;28;20050;-78
2022/07/31 02:33:35;;;;;;;10.93;5.50;;;;;;;25.99;49.44;100180.38;4999793;28;20145;-77
2022/07/31 02:36:04;;;;;;;9.30;4.97;;;;;;;25.97;49.64;100187.72;5001663;28;20948;-77
2022/07/31 02:38:33;;;;;;;12.02;5.78;;;;;;;25.84;49.98;100172.88;5013112;28;20140;-78
2022/07/31 02:41:03;;;;;;;13.50;5.15;;;;;;;25.89;50.05;100192.56;5007679;28;20100;-78
2022/07/31 02:43:33;;;;;;;9.93;4.97;;;;;;;25.79;49.82;100178.13;5006123;28;20049;-78
2022/07/31 02:46:02;;;;;;;14.80;5.07;;;;;;;25.64;49.83;100174.25;5008260;28;20045;-78
2022/07/31 02:48:28;;;;;;;14.45;4.90;;;;;;;25.58;50.13;100164.41;5007112;28;20093;-78
2022/07/31 02:50:56;;;;;;;14.00;5.45;;;;;;;25.67;50.01;100180.03;5006988;28;20153;-78
2022/07/31 02:53:24;;;;;;;15.25;4.97;;;;;;;25.67;50.12;100184.91;5015776;28;20506;-78
2022/07/31 02:55:52;;;;;;;18.05;4.97;;;;;;;25.76;50.18;100203.41;5006131;28;20188;-78
2022/07/31 02:58:19;;;;;;;17.95;5.28;;;;;;;25.69;49.66;100193.94;5008677;28;20585;-78
2022/07/31 03:00:46;;;;;;;12.10;5.22;;;;;;;25.61;49.94;100167.31;5009094;28;20140;-78
2022/07/31 03:03:13;;;;;;;10.88;5.38;;;;;;;25.75;50.10;100181.75;5003770;28;20054;-78
2022/07/31 03:05:40;;;;;;;13.65;4.97;;;;;;;25.73;49.52;100183.38;5000554;28;20062;-78
2022/07/31 03:08:07;;;;;;;17.00;4.85;;;;;;;25.66;49.98;100169.81;5004634;28;20671;-78
2022/07/31 03:10:34;;;;;;;15.18;4.38;;;;;;;25.66;49.83;100175.53;5002850;28;20140;-78
2022/07/31 03:13:02;;;;;;;20.38;5.32;;;;;;;25.62;49.92;100171.00;5017719;28;20124;-78
2022/07/31 03:15:30;;;;;;;10.80;4.65;;;;;;;25.75;50.15;100193.19;5010326;28;20065;-77
2022/07/31 03:17:57;;;;;;;13.27;4.90;;;;;;;25.77;50.13;100185.03;5004788;28;20593;-77
2022/07/31 03:20:25;;;;;;;13.77;6.07;;;;;;;25.84;50.19;100186.34;5001030;28;20081;-77
2022/07/31 03:22:52;;;;;;;14.88;5.13;;;;;;;25.82;49.97;100198.22;5005536;28;20125;-78
2022/07/31 03:25:20;;;;;;;10.43;4.88;;;;;;;25.79;49.73;100180.97;5004840;28;20081;-77
2022/07/31 03:27:49;;;;;;;14.27;5.72;;;;;;;25.85;49.89;100188.84;5005654;28;20450;-77
2022/07/31 03:30:26;;;;;;;15.80;5.28;;;;;;;25.78;49.94;100180.16;5003210;28;20081;-76
2022/07/31 03:32:55;;;;;;;13.63;5.63;;;;;;;25.85;49.93;100191.69;5002431;28;20543;-78
2022/07/31 03:35:23;;;;;;;17.10;5.15;;;;;;;25.76;50.41;100176.84;4997855;28;20055;-77
2022/07/31 03:37:50;;;;;;;12.30;4.68;;;;;;;25.73;50.52;100180.50;5000902;28;20132;-78
2022/07/31 03:40:17;;;;;;;8.07;4.28;;;;;;;25.59;50.24;100149.72;5004348;28;20045;-77
2022/07/31 03:42:46;;;;;;;14.85;5.57;;;;;;;25.63;50.15;100162.00;5000403;28;20144;-78
2022/07/31 03:45:14;;;;;;;16.02;5.30;;;;;;;25.61;50.22;100163.63;5003235;28;20054;-78
2022/07/31 03:47:41;;;;;;;14.55;5.03;;;;;;;25.70;50.44;100178.41;5000644;28;20069;-79
2022/07/31 03:50:10;;;;;;;13.70;5.93;;;;;;;25.59;50.74;100161.16;5007982;28;20124;-78
2022/07/31 03:52:37;;;;;;;12.25;5.03;;;;;;;25.50;50.64;100149.19;5002213;28;20117;-78
2022/07/31 03:55:06;;;;;;;12.98;4.82;;;;;;;25.64;50.76;100174.25;5005634;28;20053;-77
2022/07/31 03:57:36;;;;;;;24.90;5.65;;;;;;;25.60;50.89;100171.38;5000403;28;20053;-77
2022/07/31 04:00:04;;;;;;;8.95;4.00;;;;;;;25.51;50.86;100165.16;5001979;28;20093;-77
2022/07/31 04:02:33;;;;;;;16.00;5.18;;;;;;;25.46;50.71;100162.66;5003401;28;20169;-77
2022/07/31 04:05:00;;;;;;;20.65;4.68;;;;;;;25.47;51.00;100172.84;5018291;28;20494;-77
2022/07/31 04:07:32;;;;;;;12.52;4.15;;;;;;;25.41;50.96;100178.13;4999597;28;20053;-77
2022/07/31 04:09:59;;;;;;;14.73;5.90;;;;;;;25.46;51.48;100185.50;5006158;28;20148;-77
2022/07/31 04:12:26;;;;;;;15.50;6.10;;;;;;;25.34;51.61;100166.59;5009488;28;20057;-77
2022/07/31 04:14:52;;;;;;;10.43;4.70;;;;;;;25.34;51.30;100165.78;5006808;28;20474;-77
2022/07/31 04:17:19;;;;;;;19.48;5.80;;;;;;;25.24;51.24;100153.84;5004232;28;20203;-77
2022/07/31 04:19:48;;;;;;;10.55;4.50;;;;;;;25.30;51.36;100162.88;5005727;28;20192;-78
2022/07/31 04:22:15;;;;;;;8.82;4.35;;;;;;;25.31;51.24;100172.28;5002794;28;20111;-77
2022/07/31 04:24:42;;;;;;;10.15;4.32;;;;;;;25.25;51.49;100161.19;5002941;28;20216;-77
2022/07/31 04:27:09;;;;;;;19.52;7.18;;;;;;;25.11;51.67;100145.88;5006210;28;20143;-78
2022/07/31 04:29:38;;;;;;;14.43;4.95;;;;;;;25.08;51.87;100147.47;5001013;28;20502;-78
2022/07/31 04:32:05;;;;;;;9.30;4.75;;;;;;;25.12;51.70;100154.06;5019550;28;20101;-78
2022/07/31 04:34:33;;;;;;;15.50;6.13;;;;;;;25.01;51.91;100141.66;5003136;28;20092;-77
2022/07/31 04:37:00;;;;;;;13.93;5.65;;;;;;;25.12;51.75;100165.50;5002653;28;20054;-78
2022/07/31 04:39:26;;;;;;;12.95;5.22;;;;;;;25.03;51.93;100150.69;5004606;28;20085;-78
2022/07/31 04:41:54;;;;;;;15.20;5.28;;;;;;;25.00;52.04;100142.88;5006587;28;20084;-78
2022/07/31 04:44:22;;;;;;;13.55;6.15;;;;;;;25.12;51.83;100170.41;5002333;28;20129;-78
2022/07/31 04:46:48;;;;;;;12.35;4.45;;;;;;;25.09;51.94;100168.28;5002311;28;20054;-77
2022/07/31 04:49:16;;;;;;;14.80;5.43;;;;;;;25.04;51.93;100172.31;5004662;28;20137;-78
2022/07/31 04:51:43;;;;;;;16.30;6.07;;;;;;;24.68;51.85;100116.75;5001597;28;20050;-79
2022/07/31 04:54:10;;;;;;;15.40;4.75;;;;;;;24.85;52.17;100149.59;5004000;28;20041;-78
2022/07/31 04:56:40;;;;;;;18.25;6.85;;;;;;;24.86;52.16;100157.81;5000440;28;20109;-80
2022/07/31 04:59:10;;;;;;;13.10;6.00;;;;;;;24.95;52.14;100160.34;5006595;28;20050;-79
2022/07/31 05:01:39;;;;;;;14.95;5.95;;;;;;;24.85;52.26;100153.28;5020754;28;20074;-78
2022/07/31 05:04:08;;;;;;;8.48;4.70;;;;;;;24.78;52.61;100144.63;5013900;28;20053;-78
2022/07/31 05:06:40;;;;;;;11.55;6.03;;;;;;;24.86;52.98;100165.56;5004358;28;20149;-78
2022/07/31 05:09:12;;;;;;;10.80;5.55;;;;;;;24.83;53.18;100164.28;5007007;28;20547;-78
2022/07/31 05:11:46;;;;;;;13.85;5.75;;;;;;;24.72;52.72;100158.44;5002932;28;20085;-79
2022/07/31 05:14:15;;;;;;;11.03;5.77;;;;;;;24.66;53.47;100148.56;5022807;28;20133;-78
2022/07/31 05:16:43;;;;;;;13.32;6.13;;;;;;;24.70;53.00;100152.28;5011895;28;20085;-78
2022/07/31 05:19:11;;;;;;;10.77;6.20;;;;;;;24.68;53.34;100145.28;5022557;28;20088;-77
2022/07/31 05:21:41;;;;;;;9.90;5.20;;;;;;;24.47;53.15;100114.41;5001208;28;20061;-77
2022/07/31 05:24:20;;;;;;;11.75;5.90;;;;;;;24.70;53.04;100149.41;5020447;28;20045;-77
2022/07/31 05:27:00;;;;;;;9.48;6.22;;;;;;;24.89;52.88;100173.31;5022094;28;20062;-76
2022/07/31 05:29:28;;;;;;;12.80;7.05;;;;;;;24.89;53.31;100157.03;5002962;28;20046;-77
2022/07/31 05:31:55;;;;;;;10.00;5.88;;;;;;;24.86;53.01;100169.22;5009524;28;20081;-78
2022/07/31 05:34:35;;;;;;;11.98;7.30;;;;;;;24.96;53.26;100179.97;5007399;28;20145;-77
2022/07/31 05:37:02;;;;;;;12.52;6.30;;;;;;;24.90;53.37;100175.00;5007922;28;20103;-76
2022/07/31 05:39:29;;;;;;;13.93;5.53;;;;;;;24.86;53.21;100168.41;5005452;28;20196;-77
2022/07/31 05:41:56;;;;;;;9.93;5.90;;;;;;;24.95;53.26;100178.31;5007583;28;20054;-78
2022/07/31 05:44:23;;;;;;;9.80;5.95;;;;;;;25.00;53.05;100205.75;5003634;28;20514;-77
2022/07/31 05:46:51;;;;;;;15.38;6.55;;;;;;;24.93;53.20;100185.66;5006937;28;20045;-76
2022/07/31 05:49:16;;;;;;;11.38;5.68;;;;;;;24.96;53.65;100196.31;5006983;28;20042;-79
2022/07/31 05:51:45;;;;;;;10.93;6.03;;;;;;;24.94;53.55;100173.00;5005970;28;20054;-80
2022/07/31 05:54:13;;;;;;;9.03;5.63;;;;;;;24.96;53.63;100190.59;5010956;28;20046;-79
2022/07/31 05:56:39;;;;;;;13.68;6.57;;;;;;;24.93;53.64;100186.47;5001723;28;20323;-75
2022/07/31 05:59:07;;;;;;;9.05;5.88;;;;;;;24.99;53.55;100189.78;5019154;28;20058;-73
2022/07/31 06:01:33;;;;;;;10.45;6.07;;;;;;;25.09;53.59;100211.97;5004521;28;20236;-77
2022/07/31 06:04:01;;;;;;;9.50;5.32;;;;;;;25.04;54.01;100186.59;5003731;28;20100;-75
2022/07/31 06:06:28;;;;;;;10.80;6.53;;;;;;;25.12;53.95;100191.22;5006954;28;20165;-75
2022/07/31 06:08:55;;;;;;;13.45;6.53;;;;;;;25.17;53.47;100195.78;5005779;28;20145;-76
2022/07/31 06:11:29;;;;;;;10.52;6.35;;;;;;;25.20;53.73;100177.88;5011954;28;20481;-72
2022/07/31 06:13:57;;;;;;;11.02;5.90;;;;;;;25.39;53.52;100197.69;5013155;28;20136;-70
2022/07/31 06:16:24;;;;;;;13.80;6.93;;;;;;;25.66;53.21;100206.16;5011749;28;20533;-75
2022/07/31 06:18:51;;;;;;;10.32;6.50;;;;;;;25.83;52.81;100201.88;5010325;28;20149;-77
2022/07/31 06:21:18;;;;;;;10.38;6.65;;;;;;;25.95;52.45;100185.25;5019323;28;20135;-74
2022/07/31 06:23:44;;;;;;;11.75;7.07;;;;;;;26.14;52.10;100192.78;5008337;28;20065;-76
2022/07/31 06:26:11;;;;;;;11.02;6.00;;;;;;;26.42;51.96;100197.91;5011682;28;20185;-84
2022/07/31 06:28:37;;;;;;;12.50;6.32;;;;;;;26.73;51.95;100200.63;5010299;28;20132;-77
2022/07/31 06:31:18;;;;;;;8.48;6.35;;;;;;;27.00;51.37;100196.28;5011519;28;20057;-83
2022/07/31 06:33:47;;;;;;;13.88;6.85;;;;;;;27.30;51.18;100200.97;5003709;28;20425;-82
2022/07/31 06:36:16;;;;;;;12.80;6.82;;;;;;;27.58;50.81;100200.22;5014247;28;20526;-80
2022/07/31 06:38:43;;;;;;;8.90;5.97;;;;;;;27.80;50.52;100207.72;5009068;28;20109;-77
2022/07/31 06:41:10;;;;;;;10.80;6.82;;;;;;;27.82;50.27;100178.59;5011440;28;20058;-77
2022/07/31 06:43:37;;;;;;;10.13;6.45;;;;;;;27.96;50.10;100181.47;5005312;28;20132;-80
2022/07/31 06:46:04;;;;;;;11.93;6.05;;;;;;;28.40;49.41;100211.88;5013382;28;20081;-79
2022/07/31 06:48:30;;;;;;;8.20;5.72;;;;;;;28.25;49.35;100164.28;5016576;28;20573;-76
2022/07/31 06:50:57;;;;;;;9.68;5.80;;;;;;;28.62;48.85;100188.91;5009566;28;20476;-82
2022/07/31 06:53:44;;;;;;;10.15;6.03;;;;;;;28.82;48.46;100218.81;5012779;28;20045;-78
2022/07/31 06:56:11;;;;;;;10.55;6.47;;;;;;;28.92;48.40;100220.03;5010955;28;20089;-85
2022/07/31 06:58:38;;;;;;;9.77;6.18;;;;;;;28.99;47.73;100209.38;5009714;28;20489;-82
2022/07/31 07:01:04;;;;;;;10.05;6.50;;;;;;;29.35;48.16;100238.00;5010934;28;20096;-75
2022/07/31 07:03:32;;;;;;;8.25;6.15;;;;;;;29.52;47.42;100236.28;5005113;28;20042;-73
2022/07/31 07:05:59;;;;;;;7.28;5.68;;;;;;;29.87;47.25;100246.00;5006244;28;20136;-79
2022/07/31 07:08:26;;;;;;;11.20;6.32;;;;;;;30.01;46.60;100222.88;5005413;28;20148;-75
2022/07/31 07:10:53;;;;;;;10.70;6.53;;;;;;;30.31;45.93;100248.22;5004773;28;20422;-75
2022/07/31 07:13:20;;;;;;;12.68;7.30;;;;;;;30.39;45.15;100229.66;5020855;28;20132;-75
2022/07/31 07:15:49;;;;;;;10.15;5.93;;;;;;;30.55;45.07;100257.06;5005106;28;20057;-74
2022/07/31 07:18:17;;;;;;;12.77;6.07;;;;;;;30.59;44.64;100247.16;5002847;28;20482;-73
2022/07/31 07:20:43;;;;;;;10.90;7.10;;;;;;;30.63;44.69;100259.47;5008575;28;20141;-73
2022/07/31 07:23:10;;;;;;;9.77;6.90;;;;;;;30.70;44.64;100241.28;5009258;28;20517;-71
2022/07/31 07:25:37;;;;;;;12.45;6.95;;;;;;;30.79;44.21;100215.69;5005533;28;20524;-72
2022/07/31 07:28:04;;;;;;;8.23;5.88;;;;;;;31.27;43.75;100249.38;5006595;28;20049;-76
2022/07/31 07:30:31;;;;;;;12.30;6.47;;;;;;;31.57;43.11;100250.69;5009627;28;20120;-69
2022/07/31 07:32:58;;;;;;;12.20;7.90;;;;;;;31.39;42.55;100220.00;5008227;28;20084;-75
2022/07/31 07:35:25;;;;;;;12.18;6.88;;;;;;;31.37;43.15;100216.72;5007213;28;20491;-75
2022/07/31 07:37:56;;;;;;;12.07;5.47;;;;;;;31.76;43.09;100254.97;5019170;28;20058;-75
2022/07/31 07:40:24;;;;;;;8.85;5.88;;;;;;;32.13;42.40;100256.94;5001388;28;20129;-76
2022/07/31 07:42:52;;;;;;;10.75;6.55;;;;;;;32.23;41.70;100235.72;5002783;28;20064;-78
2022/07/31 07:45:18;;;;;;;12.25;6.00;;;;;;;32.57;41.85;100269.47;5007651;28;20058;-76
2022/07/31 07:47:46;;;;;;;14.75;6.22;;;;;;;32.67;41.37;100248.25;5015666;28;20065;-77
2022/07/31 07:50:31;;;;;;;9.60;6.05;;;;;;;32.89;40.85;100250.75;4997757;28;20529;-76
2022/07/31 07:52:58;;;;;;;13.20;5.63;;;;;;;33.11;40.41;100268.56;5004217;28;20140;-78
2022/07/31 07:55:25;;;;;;;10.15;5.70;;;;;;;33.20;40.04;100260.13;5003861;28;20054;-77
2022/07/31 07:57:52;;;;;;;13.50;5.82;;;;;;;33.34;39.95;100268.53;4984538;28;20057;-75
2022/07/31 08:00:22;;;;;;;8.10;5.57;;;;;;;33.56;40.04;100271.00;5006944;28;20050;-80
2022/07/31 08:02:51;;;;;;;10.65;6.10;;;;;;;33.73;39.32;100264.81;5011566;28;20072;-80
2022/07/31 08:05:38;;;;;;;11.52;5.32;;;;;;;33.90;38.95;100250.38;5010540;28;20057;-80
2022/07/31 08:08:05;;;;;;;9.82;5.70;;;;;;;34.22;38.46;100277.81;5029847;28;20081;-80
2022/07/31 08:10:33;;;;;;;12.65;5.75;;;;;;;34.29;38.20;100255.31;5002943;28;20078;-80
2022/07/31 08:13:00;;;;;;;13.65;7.53;;;;;;;34.57;37.79;100287.78;5003114;28;20140;-81
2022/07/31 08:15:28;;;;;;;17.80;6.65;;;;;;;34.49;37.79;100258.09;4996504;28;20073;-79
2022/07/31 08:17:55;;;;;;;10.57;5.47;;;;;;;34.64;37.80;100262.31;5001717;28;20586;-76
2022/07/31 08:20:22;;;;;;;11.10;6.40;;;;;;;34.75;37.52;100264.94;4999412;28;20145;-77
2022/07/31 08:22:49;;;;;;;12.80;5.47;;;;;;;34.83;37.24;100257.66;5002496;28;20056;-76
2022/07/31 08:25:16;;;;;;;15.60;5.18;;;;;;;35.11;36.67;100282.25;4998920;28;20174;-76
2022/07/31 08:27:43;;;;;;;13.40;5.18;;;;;;;35.17;36.58;100264.25;4999489;28;20136;-78
2022/07/31 08:30:14;;;;;;;9.38;4.88;;;;;;;35.41;36.21;100279.34;5004618;28;20128;-77
2022/07/31 08:32:41;;;;;;;8.48;4.85;;;;;;;35.38;36.42;100252.84;5009147;28;20462;-77
2022/07/31 08:35:08;;;;;;;5.55;4.03;;;;;;;35.51;36.17;100264.53;5008050;28;20076;-77
2022/07/31 08:37:35;;;;;;;10.55;4.40;;;;;;;35.60;36.07;100264.69;5002997;28;20141;-78
2022/07/31 08:40:23;;;;;;;8.35;5.20;;;;;;;35.72;35.31;100250.66;5009399;28;20521;-78
2022/07/31 08:42:50;;;;;;;8.38;4.80;;;;;;;36.00;35.13;100278.88;5005240;28;20463;-77
2022/07/31 08:45:17;;;;;;;12.00;5.20;;;;;;;36.15;35.17;100278.44;5008529;28;20121;-77
2022/07/31 08:47:47;;;;;;;8.60;5.00;;;;;;;36.12;35.02;100254.00;5007089;28;20125;-77
2022/07/31 08:50:15;;;;;;;9.88;6.30;;;;;;;36.34;34.98;100274.47;5003656;28;20144;-78
2022/07/31 08:52:44;;;;;;;13.10;4.60;;;;;;;36.41;34.82;100267.59;5012514;28;20089;-77
2022/07/31 08:55:11;;;;;;;10.00;5.68;;;;;;;36.48;34.23;100273.16;5025385;28;20477;-77
2022/07/31 08:57:58;;;;;;;9.18;4.75;;;;;;;36.61;33.92;100276.09;5010768;28;20057;-77
2022/07/31 09:00:27;;;;;;;8.88;4.28;;;;;;;36.38;34.34;100240.28;5011583;28;20077;-77
2022/07/31 09:02:54;;;;;;;6.40;4.57;;;;;;;36.59;33.73;100261.22;5041064;28;20084;-79
2022/07/31 09:05:23;;;;;;;10.85;6.85;;;;;;;36.62;33.42;100242.84;5011689;28;20049;-78
2022/07/31 09:07:50;;;;;;;8.25;4.75;;;;;;;36.77;32.90;100261.41;5008564;28;20140;-78
2022/07/31 09:10:26;;;;;;;12.38;4.53;;;;;;;36.84;32.99;100249.53;5010520;28;20133;-78
2022/07/31 09:12:54;;;;;;;7.57;4.57;;;;;;;37.03;32.61;100255.53;5010588;28;20136;-78
2022/07/31 09:15:27;;;;;;;5.97;4.18;;;;;;;37.10;31.93;100243.66;5010380;28;20084;-78
2022/07/31 09:17:54;;;;;;;9.25;4.97;;;;;;;37.19;31.66;100259.09;5009396;28;20132;-78
2022/07/31 09:20:24;;;;;;;9.45;4.80;;;;;;;37.30;31.76;100258.72;5011140;28;20073;-78
2022/07/31 09:23:06;;;;;;;6.22;3.72;;;;;;;37.32;30.63;100232.03;5010385;28;20081;-80
2022/07/31 09:25:33;;;;;;;6.38;4.00;;;;;;;37.66;30.80;100269.84;5008108;28;20129;-78
2022/07/31 09:28:05;;;;;;;6.32;3.90;;;;;;;37.79;30.48;100249.38;5009835;28;20578;-77
2022/07/31 09:30:32;;;;;;;9.45;3.92;;;;;;;37.72;30.89;100249.66;5026090;28;20137;-82
2022/07/31 09:33:13;;;;;;;8.20;4.10;;;;;;;37.60;31.11;100253.47;5010565;28;20093;-78
2022/07/31 09:35:49;;;;;;;6.95;3.45;;;;;;;37.75;31.25;100247.91;5025446;28;20060;-76
2022/07/31 09:38:17;;;;;;;6.85;3.78;;;;;;;38.03;30.02;100267.19;5005214;28;20184;-78
2022/07/31 09:40:44;;;;;;;6.25;3.90;;;;;;;38.09;29.88;100253.63;5024145;28;20081;-77
2022/07/31 09:43:23;;;;;;;6.97;3.67;;;;;;;38.15;29.99;100254.59;5011403;28;20117;-79
2022/07/31 09:46:00;;;;;;;9.02;4.45;;;;;;;37.87;30.42;100252.81;5029584;28;20050;-78
2022/07/31 09:48:27;;;;;;;8.75;4.72;;;;;;;37.69;30.98;100268.91;5012403;28;20597;-79
2022/07/31 09:50:59;;;;;;;11.40;4.78;;;;;;;37.57;31.18;100266.88;5027369;28;20088;-80
2022/07/31 09:53:37;;;;;;;12.18;5.05;;;;;;;37.58;31.56;100250.22;5012833;28;20137;-78
2022/07/31 09:56:11;;;;;;;9.02;4.15;;;;;;;37.68;31.58;100276.03;5012048;28;20057;-77
2022/07/31 09:58:39;;;;;;;12.15;4.70;;;;;;;37.42;31.26;100259.94;5014048;28;20050;-76
2022/07/31 10:01:11;;;;;;;11.60;5.18;;;;;;;37.57;31.00;100254.41;5011561;28;20140;-77
2022/07/31 10:03:39;;;;;;;12.55;4.90;;;;;;;37.88;30.95;100252.38;5013267;28;20064;-77
2022/07/31 10:06:11;;;;;;;10.68;4.85;;;;;;;37.95;30.76;100262.94;5029340;28;20046;-77
2022/07/31 10:08:45;;;;;;;10.73;4.40;;;;;;;37.81;31.26;100249.69;5012902;28;20050;-79
2022/07/31 10:11:18;;;;;;;8.43;4.00;;;;;;;37.64;31.54;100265.78;5011983;28;20537;-78
2022/07/31 10:13:48;;;;;;;13.70;4.55;;;;;;;37.68;30.86;100258.56;5013479;28;20105;-78
2022/07/31 10:16:16;;;;;;;10.15;4.88;;;;;;;37.70;31.36;100269.72;5013243;28;20101;-78
2022/07/31 10:18:47;;;;;;;11.15;5.47;;;;;;;37.56;31.37;100250.69;5008873;28;20142;-77
2022/07/31 10:21:16;;;;;;;10.57;4.50;;;;;;;37.59;31.30;100257.66;5012184;28;20077;-78
2022/07/31 10:23:43;;;;;;;9.07;4.63;;;;;;;37.52;31.50;100263.78;5028100;28;20145;-78
2022/07/31 10:26:10;;;;;;;9.95;4.13;;;;;;;37.74;31.28;100269.56;5013675;28;20081;-78
2022/07/31 10:28:37;;;;;;;17.75;5.10;;;;;;;37.67;31.30;100267.75;5026230;28;20077;-77
2022/07/31 10:31:05;;;;;;;9.15;4.15;;;;;;;37.77;30.68;100281.09;5010007;28;20137;-78
2022/07/31 10:33:33;;;;;;;13.07;4.18;;;;;;;37.69;30.98;100268.09;5012287;28;20161;-78
2022/07/31 10:36:18;;;;;;;11.52;4.43;;;;;;;37.75;31.00;100277.06;5028210;28;20438;-77
2022/07/31 10:39:00;;;;;;;12.82;4.95;;;;;;;37.69;30.67;100279.75;5012853;28;20107;-77
2022/07/31 10:41:53;;;;;;;8.23;3.50;;;;;;;36.93;31.64;100257.56;5009708;28;20141;-78
2022/07/31 10:44:33;;;;;;;13.18;3.67;;;;;;;37.17;31.81;100276.25;5009324;28;20057;-78
2022/07/31 10:47:14;;;;;;;6.43;4.07;;;;;;;37.29;31.11;100274.56;5012193;28;20540;-76
2022/07/31 10:49:43;;;;;;;8.88;3.95;;;;;;;37.55;30.69;100286.94;5016437;28;20480;-77
2022/07/31 10:52:10;;;;;;;7.75;3.30;;;;;;;37.63;30.93;100270.81;5017508;28;20137;-77
2022/07/31 10:54:45;;;;;;;12.48;3.83;;;;;;;37.87;30.70;100264.47;5006089;28;20081;-77
2022/07/31 10:57:27;;;;;;;11.35;3.83;;;;;;;37.91;30.65;100263.06;5010349;28;20141;-77
2022/07/31 10:59:54;;;;;;;12.52;3.92;;;;;;;38.08;30.23;100286.97;5006421;28;20152;-76
2022/07/31 11:02:32;;;;;;;11.55;3.80;;;;;;;37.93;30.10;100248.84;5010189;28;20237;-77
2022/07/31 11:05:10;;;;;;;12.98;3.78;;;;;;;37.62;30.30;100265.47;5011520;28;20546;-77
2022/07/31 11:07:41;;;;;;;14.23;4.40;;;;;;;37.56;30.91;100276.09;5011774;28;20126;-79
2022/07/31 11:10:19;;;;;;;12.50;4.28;;;;;;;37.83;30.28;100273.38;5012890;28;20092;-77
2022/07/31 11:13:09;;;;;;;10.57;4.03;;;;;;;37.85;30.44;100285.38;5054408;28;20399;-67
2022/07/31 11:15:36;;;;;;;13.55;4.32;;;;;;;37.71;31.16;100283.00;5032366;28;20060;-66
2022/07/31 11:18:15;;;;;;;11.43;4.93;;;;;;;38.02;30.62;100265.59;5035246;28;20148;-66
2022/07/31 11:21:03;;;;;;;8.68;4.35;;;;;;;38.25;30.30;100260.50;5033342;28;20085;-66
2022/07/31 11:23:50;;;;;;;10.52;4.70;;;;;;;38.61;29.79;100277.34;5027689;28;20061;-66
2022/07/31 11:26:29;;;;;;;12.57;4.47;;;;;;;38.62;30.28;100261.47;5030960;28;20053;-66
2022/07/31 11:29:06;;;;;;;11.65;4.82;;;;;;;38.46;30.04;100259.63;5036365;28;20059;-66
2022/07/31 11:31:54;;;;;;;11.10;5.13;;;;;;;38.52;29.81;100263.53;5030168;28;20053;-65